KOGA/OGA METAR and TAF weather

Enter ICAO airport designator
Station Type Date Time Source
KOGA METAR 2019/12/07 14:55 UTC NOAA

KOGA 071455Z AUTO 24003KT 7SM CLR M03/M03 A3002 RMK AO2 T10271033


Station Type Date Time Source
KOGA Decoded METAR 2019/12/07 14:55 UTC NOAA

Ogallala, Searle Field Airport, NE, United States (KOGA) 41-07-11N 101-46-08W
Dec 07, 2019 - 09:55 AM EST / 2019.12.07 1455 UTC
Wind: from the WSW (240 degrees) at 3 MPH (3 KT):0
Visibility: 7 mile(s):0
Sky conditions: clear
Temperature: 27.1 F (-2.7 C)
Dew Point: 26.1 F (-3.3 C)
Relative Humidity: 95%
Pressure (altimeter): 30.02 in. Hg (1016 hPa)
ob: KOGA 071455Z AUTO 24003KT 7SM CLR M03/M03 A3002 RMK AO2 T10271033
cycle: 15

Station Type Date Time Source
KOGA TAF UTC NOAA

Error!

Example: see airport list